createdAt,value
2023-01-28T00:03:33.463Z,102329.88
2023-01-28T00:11:12.232Z,102332.44
2023-01-28T00:18:47.746Z,102328.84
2023-01-28T00:26:22.283Z,102328.06
2023-01-28T00:33:58.816Z,102334.84
2023-01-28T00:41:32.913Z,102333.22
2023-01-28T00:49:07.928Z,102343.66
2023-01-28T00:56:41.703Z,102352.16
2023-01-28T01:04:26.941Z,102357.47
2023-01-28T01:12:03.063Z,102347.59
2023-01-28T01:19:39.519Z,102352.22
2023-01-28T01:27:13.347Z,102345.34
2023-01-28T01:34:48.554Z,102346.41
2023-01-28T01:42:23.254Z,102353.22
2023-01-28T01:50:00.967Z,102354.66
2023-01-28T01:57:37.207Z,102364.75
2023-01-28T02:05:16.075Z,102368.44
2023-01-28T02:12:54.362Z,102369.44
2023-01-28T02:20:41.953Z,102361.81
2023-01-28T02:28:25.876Z,102358.94
2023-01-28T02:36:09.222Z,102358.38
2023-01-28T02:43:46.455Z,102369.13
2023-01-28T02:51:33.770Z,102364.81
2023-01-28T02:59:32.202Z,102355.19
2023-01-28T03:07:10.942Z,102363.19
2023-01-28T03:15:07.710Z,102365.31
2023-01-28T03:23:06.332Z,102374.44
2023-01-28T03:31:04.390Z,102370.38
2023-01-28T03:38:43.046Z,102370.50
2023-01-28T03:46:19.064Z,102374.56
2023-01-28T03:53:53.017Z,102371.41
2023-01-28T04:01:28.249Z,102365.13
2023-01-28T04:09:02.388Z,102365.56
2023-01-28T04:16:37.310Z,102373.31
2023-01-28T04:24:11.399Z,102373.31
2023-01-28T04:31:46.528Z,102374.88
2023-01-28T04:39:20.254Z,102383.25
2023-01-28T04:46:55.387Z,102373.81
2023-01-28T04:54:29.522Z,102371.94
2023-01-28T05:02:04.895Z,102375.19
2023-01-28T05:09:38.745Z,102376.75
2023-01-28T05:17:13.931Z,102396.16
2023-01-28T05:24:49.180Z,102408.53
2023-01-28T05:32:24.431Z,102403.66
2023-01-28T05:39:58.531Z,102402.34
2023-01-28T05:47:34.387Z,102390.50
2023-01-28T05:55:09.142Z,102402.84
2023-01-28T06:02:44.699Z,102395.88
2023-01-28T06:10:18.613Z,102396.91
2023-01-28T06:17:53.757Z,102401.53
2023-01-28T06:25:27.564Z,102402.41
2023-01-28T06:33:02.961Z,102413.06
2023-01-28T06:40:36.996Z,102408.97
2023-01-28T06:48:12.564Z,102416.16
2023-01-28T06:55:46.372Z,102419.47
2023-01-28T07:03:21.894Z,102423.56
2023-01-28T07:10:55.774Z,102430.00
2023-01-28T07:18:31.390Z,102426.03
2023-01-28T07:26:05.881Z,102421.00
2023-01-28T07:33:41.160Z,102425.16
2023-01-28T07:41:15.176Z,102426.09
2023-01-28T07:48:50.329Z,102423.59
2023-01-28T07:56:24.478Z,102426.59
2023-01-28T08:03:59.457Z,102418.47
2023-01-28T08:11:33.886Z,102437.88
2023-01-28T08:19:09.323Z,102448.00
2023-01-28T08:26:44.932Z,102461.28
2023-01-28T08:34:20.122Z,102457.03
2023-01-28T08:41:54.204Z,102475.81
2023-01-28T08:49:29.635Z,102478.56
2023-01-28T08:57:04.400Z,102472.53
2023-01-28T09:04:39.957Z,102483.41
2023-01-28T09:12:13.762Z,102482.63
2023-01-28T09:19:49.067Z,102497.03
2023-01-28T09:27:22.786Z,102515.81
2023-01-28T09:34:58.140Z,102522.50
2023-01-28T09:42:51.416Z,102521.06
2023-01-28T09:50:32.491Z,102523.13
2023-01-28T09:58:09.258Z,102516.28
2023-01-28T10:05:54.540Z,102523.59
2023-01-28T10:13:37.848Z,102518.03
2023-01-28T10:21:19.951Z,102513.91
2023-01-28T10:29:01.714Z,102514.16
2023-01-28T10:36:36.893Z,102498.97
2023-01-28T10:44:17.964Z,102494.59
2023-01-28T10:51:53.150Z,102503.44
2023-01-28T10:59:29.957Z,102501.03
2023-01-28T11:07:07.112Z,102498.53
2023-01-28T11:14:51.214Z,102499.81
2023-01-28T11:22:33.610Z,102500.16
2023-01-28T11:30:22.249Z,102489.06
2023-01-28T11:37:58.018Z,102476.81
2023-01-28T11:45:40.988Z,102483.09
2023-01-28T11:53:51.611Z,102464.31
2023-01-28T12:01:34.445Z,102459.16
2023-01-28T12:09:18.727Z,102458.91
2023-01-28T12:17:02.439Z,102456.63
2023-01-28T12:25:15.638Z,102449.53
2023-01-28T12:33:06.177Z,102446.09
2023-01-28T12:40:51.327Z,102453.00
2023-01-28T12:48:33.850Z,102444.16
2023-01-28T12:56:15.715Z,102434.56
2023-01-28T13:03:55.522Z,102442.69
2023-01-28T13:11:38.407Z,102420.69
2023-01-28T13:19:25.167Z,102403.38
2023-01-28T13:27:11.007Z,102404.88
2023-01-28T13:34:45.074Z,102399.97
2023-01-28T13:42:36.305Z,102391.47
2023-01-28T13:50:18.638Z,102395.94
2023-01-28T13:58:34.820Z,102390.66
2023-01-28T14:06:50.812Z,102371.69
2023-01-28T14:14:45.240Z,102387.25
2023-01-28T14:22:21.861Z,102382.00
2023-01-28T14:30:08.441Z,102363.56
2023-01-28T14:37:42.560Z,102376.91
2023-01-28T14:45:31.505Z,102389.53
2023-01-28T14:53:27.417Z,102395.47
2023-01-28T15:01:02.958Z,102398.81
2023-01-28T15:08:38.018Z,102384.81
2023-01-28T15:16:20.637Z,102406.59
2023-01-28T15:23:57.644Z,102402.03
2023-01-28T15:31:35.041Z,102389.53
2023-01-28T15:39:16.266Z,102387.91
2023-01-28T15:46:51.404Z,102400.97
2023-01-28T15:54:26.323Z,102408.63
2023-01-28T16:02:23.294Z,102415.53
2023-01-28T16:10:00.728Z,102434.97
2023-01-28T16:17:43.336Z,102427.88
2023-01-28T16:25:37.060Z,102429.69
2023-01-28T16:33:20.352Z,102408.63
2023-01-28T16:40:54.166Z,102405.53
2023-01-28T16:48:30.532Z,102426.00
2023-01-28T16:56:07.090Z,102420.84
2023-01-28T17:03:43.548Z,102434.22
2023-01-28T17:11:18.074Z,102454.00
2023-01-28T17:18:53.754Z,102477.31
2023-01-28T17:26:28.952Z,102468.66
2023-01-28T17:34:06.834Z,102497.88
2023-01-28T17:41:40.641Z,102494.25
2023-01-28T17:49:16.305Z,102476.59
2023-01-28T17:56:51.064Z,102471.78
2023-01-28T18:04:26.565Z,102463.50
2023-01-28T18:12:00.490Z,102481.44
2023-01-28T18:19:36.185Z,102487.25
2023-01-28T18:27:09.950Z,102476.88
2023-01-28T18:34:45.238Z,102471.47
2023-01-28T18:42:19.011Z,102463.66
2023-01-28T18:49:54.260Z,102474.19
2023-01-28T18:57:28.353Z,102479.31
2023-01-28T19:05:03.565Z,102480.53
2023-01-28T19:12:37.358Z,102466.69
2023-01-28T19:20:13.832Z,102467.38
2023-01-28T19:27:47.803Z,102471.31
2023-01-28T19:35:24.187Z,102466.88
2023-01-28T19:42:58.059Z,102457.16
2023-01-28T19:50:33.344Z,102459.53
2023-01-28T19:58:07.270Z,102470.84
2023-01-28T20:05:42.521Z,102469.69
2023-01-28T20:13:16.891Z,102508.63
2023-01-28T20:20:54.903Z,102496.94
2023-01-28T20:28:28.957Z,102474.50
2023-01-28T20:36:05.118Z,102474.75
2023-01-28T20:43:40.664Z,102456.25
2023-01-28T20:51:17.776Z,102469.94
2023-01-28T20:58:56.808Z,102460.88
2023-01-28T21:06:32.311Z,102469.16
2023-01-28T21:14:06.611Z,102481.53
2023-01-28T21:21:42.974Z,102451.34
2023-01-28T21:29:18.800Z,102445.69
2023-01-28T21:36:55.335Z,102442.00
2023-01-28T21:44:29.133Z,102460.69
2023-01-28T21:52:04.243Z,102450.59
2023-01-28T21:59:40.412Z,102448.75
2023-01-28T22:07:17.492Z,102435.91
2023-01-28T22:14:51.635Z,102445.38
2023-01-28T22:22:26.591Z,102416.50
2023-01-28T22:30:00.420Z,102429.13
2023-01-28T22:37:35.623Z,102419.50
2023-01-28T22:45:10.705Z,102415.84
2023-01-28T22:52:45.836Z,102411.50
2023-01-28T23:00:21.202Z,102403.13
2023-01-28T23:08:09.971Z,102406.53
2023-01-28T23:16:01.615Z,102402.09
2023-01-28T23:23:54.351Z,102393.53
2023-01-28T23:31:28.331Z,102376.72
2023-01-28T23:39:03.486Z,102375.28
2023-01-28T23:46:39.716Z,102358.22
2023-01-28T23:54:15.314Z,102359.25
